sensor_id;sensor_type;location;lat;lon;timestamp;pressure;altitude;pressure_sealevel;temperature
54306;BMP280;64314;45.188;5.712;2022-10-16T00:01:24;99377.25;;;21.70
54306;BMP280;64314;45.188;5.712;2022-10-16T00:03:49;99382.81;;;21.70
54306;BMP280;64314;45.188;5.712;2022-10-16T00:06:17;99372.31;;;21.69
54306;BMP280;64314;45.188;5.712;2022-10-16T00:08:43;99381.50;;;21.71
54306;BMP280;64314;45.188;5.712;2022-10-16T00:11:15;99391.88;;;21.71
54306;BMP280;64314;45.188;5.712;2022-10-16T00:13:43;99384.63;;;21.66
54306;BMP280;64314;45.188;5.712;2022-10-16T00:16:13;99391.13;;;21.70
54306;BMP280;64314;45.188;5.712;2022-10-16T00:18:39;99396.69;;;21.70
54306;BMP280;64314;45.188;5.712;2022-10-16T00:21:18;99382.69;;;21.68
54306;BMP280;64314;45.188;5.712;2022-10-16T00:23:44;99384.63;;;21.66
54306;BMP280;64314;45.188;5.712;2022-10-16T00:26:15;99400.94;;;21.71
54306;BMP280;64314;45.188;5.712;2022-10-16T00:28:40;99389.69;;;21.69
54306;BMP280;64314;45.188;5.712;2022-10-16T00:31:09;99392.47;;;21.69
54306;BMP280;64314;45.188;5.712;2022-10-16T00:33:36;99392.47;;;21.69
54306;BMP280;64314;45.188;5.712;2022-10-16T00:36:03;99393.69;;;21.66
54306;BMP280;64314;45.188;5.712;2022-10-16T00:38:29;99391.00;;;21.68
54306;BMP280;64314;45.188;5.712;2022-10-16T00:40:56;99397.19;;;21.67
54306;BMP280;64314;45.188;5.712;2022-10-16T00:46:05;99398.03;;;21.69
54306;BMP280;64314;45.188;5.712;2022-10-16T00:48:34;99401.38;;;21.68
54306;BMP280;64314;45.188;5.712;2022-10-16T00:51:00;99402.84;;;21.69
54306;BMP280;64314;45.188;5.712;2022-10-16T00:53:27;99404.78;;;21.66
54306;BMP280;64314;45.188;5.712;2022-10-16T00:55:56;99407.66;;;21.68
54306;BMP280;64314;45.188;5.712;2022-10-16T00:58:22;99413.34;;;21.70
54306;BMP280;64314;45.188;5.712;2022-10-16T01:00:48;99411.91;;;21.69
54306;BMP280;64314;45.188;5.712;2022-10-16T01:05:57;99425.78;;;21.69
54306;BMP280;64314;45.188;5.712;2022-10-16T01:08:35;99432.06;;;21.70
54306;BMP280;64314;45.188;5.712;2022-10-16T01:11:17;99433.38;;;21.69
54306;BMP280;64314;45.188;5.712;2022-10-16T01:13:51;99424.03;;;21.64
54306;BMP280;64314;45.188;5.712;2022-10-16T01:16:34;99425.66;;;21.67
54306;BMP280;64314;45.188;5.712;2022-10-16T01:19:13;99420.22;;;21.69
54306;BMP280;64314;45.188;5.712;2022-10-16T01:21:47;99425.50;;;21.65
54306;BMP280;64314;45.188;5.712;2022-10-16T01:24:33;99420.22;;;21.69
54306;BMP280;64314;45.188;5.712;2022-10-16T01:35:43;99429.84;;;21.68
54306;BMP280;64314;45.188;5.712;2022-10-16T01:40:19;99436.75;;;21.67
54306;BMP280;64314;45.188;5.712;2022-10-16T01:43:31;99436.88;;;21.69
54306;BMP280;64314;45.188;5.712;2022-10-16T01:45:55;99443.75;;;21.68
54306;BMP280;64314;45.188;5.712;2022-10-16T01:48:21;99449.28;;;21.68
54306;BMP280;64314;45.188;5.712;2022-10-16T01:51:01;99435.53;;;21.70
54306;BMP280;64314;45.188;5.712;2022-10-16T01:53:29;99448.13;;;21.71
54306;BMP280;64314;45.188;5.712;2022-10-16T01:55:55;99436.16;;;21.69
54306;BMP280;64314;45.188;5.712;2022-10-16T01:58:25;99449.44;;;21.70
54306;BMP280;64314;45.188;5.712;2022-10-16T02:00:53;99444.47;;;21.69
54306;BMP280;64314;45.188;5.712;2022-10-16T02:03:20;99448.13;;;21.71
54306;BMP280;64314;45.188;5.712;2022-10-16T02:05:50;99453.66;;;21.71
54306;BMP280;64314;45.188;5.712;2022-10-16T02:08:16;99452.34;;;21.72
54306;BMP280;64314;45.188;5.712;2022-10-16T02:10:41;99443.28;;;21.72
54306;BMP280;64314;45.188;5.712;2022-10-16T02:13:11;99447.53;;;21.73
54306;BMP280;64314;45.188;5.712;2022-10-16T02:15:38;99443.28;;;21.72
54306;BMP280;64314;45.188;5.712;2022-10-16T02:18:05;99448.25;;;21.73
54306;BMP280;64314;45.188;5.712;2022-10-16T02:20:36;99439.66;;;21.69
54306;BMP280;64314;45.188;5.712;2022-10-16T02:23:06;99445.34;;;21.71
54306;BMP280;64314;45.188;5.712;2022-10-16T02:25:40;99453.81;;;21.73
54306;BMP280;64314;45.188;5.712;2022-10-16T02:28:16;99443.88;;;21.70
54306;BMP280;64314;45.188;5.712;2022-10-16T02:30:45;99450.91;;;21.71
54306;BMP280;64314;45.188;5.712;2022-10-16T02:33:14;99460.81;;;21.74
54306;BMP280;64314;45.188;5.712;2022-10-16T02:35:41;99456.00;;;21.75
54306;BMP280;64314;45.188;5.712;2022-10-16T02:38:08;99449.56;;;21.72
54306;BMP280;64314;45.188;5.712;2022-10-16T02:40:34;99457.28;;;21.74
54306;BMP280;64314;45.188;5.712;2022-10-16T02:43:00;99446.78;;;21.72
54306;BMP280;64314;45.188;5.712;2022-10-16T02:45:28;99451.34;;;21.68
54306;BMP280;64314;45.188;5.712;2022-10-16T02:47:54;99442.28;;;21.67
54306;BMP280;64314;45.188;5.712;2022-10-16T02:50:19;99458.50;;;21.71
54306;BMP280;64314;45.188;5.712;2022-10-16T02:52:45;99448.72;;;21.70
54306;BMP280;64314;45.188;5.712;2022-10-16T02:55:10;99451.03;;;21.73
54306;BMP280;64314;45.188;5.712;2022-10-16T02:57:36;99445.06;;;21.67
54306;BMP280;64314;45.188;5.712;2022-10-16T03:00:04;99451.59;;;21.72
54306;BMP280;64314;45.188;5.712;2022-10-16T03:02:29;99454.97;;;21.70
54306;BMP280;64314;45.188;5.712;2022-10-16T03:04:55;99439.09;;;21.61
54306;BMP280;64314;45.188;5.712;2022-10-16T03:07:23;99457.44;;;21.76
54306;BMP280;64314;45.188;5.712;2022-10-16T03:09:48;99446.50;;;21.68
54306;BMP280;64314;45.188;5.712;2022-10-16T03:12:14;99446.41;;;21.66
54306;BMP280;64314;45.188;5.712;2022-10-16T03:14:39;99459.50;;;21.75
54306;BMP280;64314;45.188;5.712;2022-10-16T03:17:05;99456.72;;;21.75
54306;BMP280;64314;45.188;5.712;2022-10-16T03:19:31;99441.69;;;21.69
54306;BMP280;64314;45.188;5.712;2022-10-16T03:21:56;99450.16;;;21.71
54306;BMP280;64314;45.188;5.712;2022-10-16T03:24:22;99450.91;;;21.71
54306;BMP280;64314;45.188;5.712;2022-10-16T03:26:48;99441.31;;;21.63
54306;BMP280;64314;45.188;5.712;2022-10-16T03:29:13;99456.72;;;21.75
54306;BMP280;64314;45.188;5.712;2022-10-16T03:31:38;99462.56;;;21.79
54306;BMP280;64314;45.188;5.712;2022-10-16T03:34:04;99435.03;;;21.62
54306;BMP280;64314;45.188;5.712;2022-10-16T03:36:29;99458.16;;;21.76
54306;BMP280;64314;45.188;5.712;2022-10-16T03:38:55;99437.91;;;21.64
54306;BMP280;64314;45.188;5.712;2022-10-16T03:41:20;99442.06;;;21.63
54306;BMP280;64314;45.188;5.712;2022-10-16T03:43:45;99444.94;;;21.65
54306;BMP280;64314;45.188;5.712;2022-10-16T03:46:11;99449.44;;;21.70
54306;BMP280;64314;45.188;5.712;2022-10-16T03:48:36;99459.38;;;21.73
54306;BMP280;64314;45.188;5.712;2022-10-16T03:51:02;99461.06;;;21.78
54306;BMP280;64314;45.188;5.712;2022-10-16T03:53:27;99464.59;;;21.79
54306;BMP280;64314;45.188;5.712;2022-10-16T03:55:52;99459.03;;;21.79
54306;BMP280;64314;45.188;5.712;2022-10-16T03:58:18;99458.16;;;21.76
54306;BMP280;64314;45.188;5.712;2022-10-16T04:00:45;99455.53;;;21.78
54306;BMP280;64314;45.188;5.712;2022-10-16T04:03:11;99451.44;;;21.79
54306;BMP280;64314;45.188;5.712;2022-10-16T04:05:37;99465.31;;;21.79
54306;BMP280;64314;45.188;5.712;2022-10-16T04:08:02;99457.00;;;21.79
54306;BMP280;64314;45.188;5.712;2022-10-16T04:10:28;99454.66;;;21.76
54306;BMP280;64314;45.188;5.712;2022-10-16T04:12:53;99457.00;;;21.79
54306;BMP280;64314;45.188;5.712;2022-10-16T04:15:25;99463.25;;;21.80
54306;BMP280;64314;45.188;5.712;2022-10-16T04:17:51;99458.03;;;21.74
54306;BMP280;64314;45.188;5.712;2022-10-16T04:20:17;99458.41;;;21.80
54306;BMP280;64314;45.188;5.712;2022-10-16T04:22:44;99464.19;;;21.73
54306;BMP280;64314;45.188;5.712;2022-10-16T04:25:10;99463.25;;;21.80
54306;BMP280;64314;45.188;5.712;2022-10-16T04:27:36;99459.78;;;21.79
54306;BMP280;64314;45.188;5.712;2022-10-16T04:30:02;99452.16;;;21.80
54306;BMP280;64314;45.188;5.712;2022-10-16T04:32:28;99463.25;;;21.80
54306;BMP280;64314;45.188;5.712;2022-10-16T04:34:53;99467.38;;;21.79
54306;BMP280;64314;45.188;5.712;2022-10-16T04:37:19;99470.00;;;21.77
54306;BMP280;64314;45.188;5.712;2022-10-16T04:39:48;99463.13;;;21.78
54306;BMP280;64314;45.188;5.712;2022-10-16T04:42:13;99459.78;;;21.79
54306;BMP280;64314;45.188;5.712;2022-10-16T04:44:38;99459.50;;;21.75
54306;BMP280;64314;45.188;5.712;2022-10-16T04:47:04;99465.16;;;21.77
54306;BMP280;64314;45.188;5.712;2022-10-16T04:49:29;99467.94;;;21.77
54306;BMP280;64314;45.188;5.712;2022-10-16T04:51:55;99466.63;;;21.78
54306;BMP280;64314;45.188;5.712;2022-10-16T04:54:20;99475.69;;;21.79
54306;BMP280;64314;45.188;5.712;2022-10-16T04:56:45;99480.63;;;21.80
54306;BMP280;64314;45.188;5.712;2022-10-16T04:59:16;99488.38;;;21.82
54306;BMP280;64314;45.188;5.712;2022-10-16T05:01:42;99496.13;;;21.83
54306;BMP280;64314;45.188;5.712;2022-10-16T05:04:08;99482.94;;;21.84
54306;BMP280;64314;45.188;5.712;2022-10-16T05:06:33;99479.22;;;21.79
54306;BMP280;64314;45.188;5.712;2022-10-16T05:08:59;99477.84;;;21.80
54306;BMP280;64314;45.188;5.712;2022-10-16T05:11:24;99468.09;;;21.79
54306;BMP280;64314;45.188;5.712;2022-10-16T05:13:49;99480.16;;;21.84
54306;BMP280;64314;45.188;5.712;2022-10-16T05:16:15;99469.50;;;21.80
54306;BMP280;64314;45.188;5.712;2022-10-16T05:18:41;99470.88;;;21.79
54306;BMP280;64314;45.188;5.712;2022-10-16T05:21:06;99487.91;;;21.85
54306;BMP280;64314;45.188;5.712;2022-10-16T05:23:31;99492.00;;;21.84
54306;BMP280;64314;45.188;5.712;2022-10-16T05:25:58;99486.44;;;21.84
54306;BMP280;64314;45.188;5.712;2022-10-16T05:28:25;99489.13;;;21.82
54306;BMP280;64314;45.188;5.712;2022-10-16T05:30:51;99487.63;;;21.81
54306;BMP280;64314;45.188;5.712;2022-10-16T05:33:16;99492.00;;;21.84
54306;BMP280;64314;45.188;5.712;2022-10-16T05:35:42;99493.38;;;21.83
54306;BMP280;64314;45.188;5.712;2022-10-16T05:38:09;99498.63;;;21.79
54306;BMP280;64314;45.188;5.712;2022-10-16T05:40:34;99489.56;;;21.79
54306;BMP280;64314;45.188;5.712;2022-10-16T05:43:00;99509.41;;;21.85
54306;BMP280;64314;45.188;5.712;2022-10-16T05:45:25;99504.56;;;21.85
54306;BMP280;64314;45.188;5.712;2022-10-16T05:47:51;99503.00;;;21.82
54306;BMP280;64314;45.188;5.712;2022-10-16T05:50:16;99506.63;;;21.85
54306;BMP280;64314;45.188;5.712;2022-10-16T05:52:42;99507.25;;;21.83
54306;BMP280;64314;45.188;5.712;2022-10-16T05:55:07;99504.31;;;21.81
54306;BMP280;64314;45.188;5.712;2022-10-16T05:57:33;99506.50;;;21.83
54306;BMP280;64314;45.188;5.712;2022-10-16T05:59:58;99506.34;;;21.81
54306;BMP280;64314;45.188;5.712;2022-10-16T06:02:23;99508.66;;;21.84
54306;BMP280;64314;45.188;5.712;2022-10-16T06:04:51;99511.16;;;21.80
54306;BMP280;64314;45.188;5.712;2022-10-16T06:07:18;99518.34;;;21.83
54306;BMP280;64314;45.188;5.712;2022-10-16T06:09:44;99534.53;;;21.87
54306;BMP280;64314;45.188;5.712;2022-10-16T06:12:09;99518.78;;;21.80
54306;BMP280;64314;45.188;5.712;2022-10-16T06:14:34;99532.22;;;21.83
54306;BMP280;64314;45.188;5.712;2022-10-16T06:17:00;99539.19;;;21.84
54306;BMP280;64314;45.188;5.712;2022-10-16T06:19:25;99531.31;;;21.81
54306;BMP280;64314;45.188;5.712;2022-10-16T06:21:50;99547.69;;;21.86
54306;BMP280;64314;45.188;5.712;2022-10-16T06:24:16;99555.28;;;21.86
54306;BMP280;64314;45.188;5.712;2022-10-16T06:26:41;99543.34;;;21.83
54306;BMP280;64314;45.188;5.712;2022-10-16T06:29:08;99550.47;;;21.86
54306;BMP280;64314;45.188;5.712;2022-10-16T06:31:33;99552.50;;;21.86
54306;BMP280;64314;45.188;5.712;2022-10-16T06:33:59;99547.97;;;21.81
54306;BMP280;64314;45.188;5.712;2022-10-16T06:36:25;99564.91;;;21.85
54306;BMP280;64314;45.188;5.712;2022-10-16T06:38:51;99561.56;;;21.86
54306;BMP280;64314;45.188;5.712;2022-10-16T06:41:18;99559.09;;;21.81
54306;BMP280;64314;45.188;5.712;2022-10-16T06:43:44;99548.72;;;21.81
54306;BMP280;64314;45.188;5.712;2022-10-16T06:46:15;99557.31;;;21.85
54306;BMP280;64314;45.188;5.712;2022-10-16T06:48:41;99567.13;;;21.86
54306;BMP280;64314;45.188;5.712;2022-10-16T06:51:08;99567.13;;;21.86
54306;BMP280;64314;45.188;5.712;2022-10-16T06:53:36;99560.84;;;21.86
54306;BMP280;64314;45.188;5.712;2022-10-16T06:56:10;99566.22;;;21.84
54306;BMP280;64314;45.188;5.712;2022-10-16T06:58:36;99571.66;;;21.82
54306;BMP280;64314;45.188;5.712;2022-10-16T07:01:03;99573.25;;;21.85
54306;BMP280;64314;45.188;5.712;2022-10-16T07:03:28;99573.72;;;21.81
54306;BMP280;64314;45.188;5.712;2022-10-16T07:05:53;99571.09;;;21.83
54306;BMP280;64314;45.188;5.712;2022-10-16T07:08:19;99568.31;;;21.83
54306;BMP280;64314;45.188;5.712;2022-10-16T07:10:46;99561.00;;;21.78
54306;BMP280;64314;45.188;5.712;2022-10-16T07:13:11;99580.84;;;21.84
54306;BMP280;64314;45.188;5.712;2022-10-16T07:15:39;99581.75;;;21.87
54306;BMP280;64314;45.188;5.712;2022-10-16T07:18:04;99584.06;;;21.81
54306;BMP280;64314;45.188;5.712;2022-10-16T07:20:29;99592.13;;;21.86
54306;BMP280;64314;45.188;5.712;2022-10-16T07:22:55;99574.47;;;21.72
54306;BMP280;64314;45.188;5.712;2022-10-16T07:25:20;99595.81;;;21.79
54306;BMP280;64314;45.188;5.712;2022-10-16T07:27:45;99600.91;;;21.83
54306;BMP280;64314;45.188;5.712;2022-10-16T07:30:11;99603.50;;;21.81
54306;BMP280;64314;45.188;5.712;2022-10-16T07:32:37;99578.16;;;21.65
54306;BMP280;64314;45.188;5.712;2022-10-16T07:35:02;99606.91;;;21.79
54306;BMP280;64314;45.188;5.712;2022-10-16T07:37:28;99596.22;;;21.76
54306;BMP280;64314;45.188;5.712;2022-10-16T07:39:53;99595.94;;;21.72
54306;BMP280;64314;45.188;5.712;2022-10-16T07:42:21;99599.75;;;21.76
54306;BMP280;64314;45.188;5.712;2022-10-16T07:44:49;99612.47;;;21.79
54306;BMP280;64314;45.188;5.712;2022-10-16T07:47:23;99609.25;;;21.73
54306;BMP280;64314;45.188;5.712;2022-10-16T07:49:58;99611.91;;;21.71
54306;BMP280;64314;45.188;5.712;2022-10-16T07:52:26;99615.53;;;21.74
54306;BMP280;64314;45.188;5.712;2022-10-16T07:54:53;99621.34;;;21.78
54306;BMP280;64314;45.188;5.712;2022-10-16T07:57:22;99615.97;;;21.70
54306;BMP280;64314;45.188;5.712;2022-10-16T07:59:53;99595.81;;;21.60
54306;BMP280;64314;45.188;5.712;2022-10-16T08:02:18;99609.13;;;21.62
54306;BMP280;64314;45.188;5.712;2022-10-16T08:04:54;99628.41;;;21.69
54306;BMP280;64314;45.188;5.712;2022-10-16T08:07:20;99613.78;;;21.69
54306;BMP280;64314;45.188;5.712;2022-10-16T08:09:49;99601.84;;;21.57
54306;BMP280;64314;45.188;5.712;2022-10-16T08:12:15;99608.00;;;21.55
54306;BMP280;64314;45.188;5.712;2022-10-16T08:14:40;99595.28;;;21.52
54306;BMP280;64314;45.188;5.712;2022-10-16T08:17:06;99615.09;;;21.68
54306;BMP280;64314;45.188;5.712;2022-10-16T08:19:31;99614.25;;;21.65
54306;BMP280;64314;45.188;5.712;2022-10-16T08:22:01;99614.97;;;21.66
54306;BMP280;64314;45.188;5.712;2022-10-16T08:24:27;99602.31;;;21.53
54306;BMP280;64314;45.188;5.712;2022-10-16T08:26:55;99595.13;;;21.50
54306;BMP280;64314;45.188;5.712;2022-10-16T08:29:30;99588.28;;;21.51
54306;BMP280;64314;45.188;5.712;2022-10-16T08:32:03;99610.78;;;21.55
54306;BMP280;64314;45.188;5.712;2022-10-16T08:34:29;99603.75;;;21.54
54306;BMP280;64314;45.188;5.712;2022-10-16T08:36:54;99617.34;;;21.60
54306;BMP280;64314;45.188;5.712;2022-10-16T08:39:25;99599.97;;;21.59
54306;BMP280;64314;45.188;5.712;2022-10-16T08:45:07;99614.13;;;21.63
54306;BMP280;64314;45.188;5.712;2022-10-16T08:47:45;99604.50;;;21.55
54306;BMP280;64314;45.188;5.712;2022-10-16T08:50:37;99598.41;;;21.46
54306;BMP280;64314;45.188;5.712;2022-10-16T08:53:04;99618.03;;;21.60
54306;BMP280;64314;45.188;5.712;2022-10-16T08:55:37;99607.56;;;21.49
54306;BMP280;64314;45.188;5.712;2022-10-16T08:58:14;99610.50;;;21.51
54306;BMP280;64314;45.188;5.712;2022-10-16T09:01:13;99601.44;;;21.50
54306;BMP280;64314;45.188;5.712;2022-10-16T09:06:38;99623.47;;;21.58
54306;BMP280;64314;45.188;5.712;2022-10-16T09:20:13;99617.22;;;21.48
54306;BMP280;64314;45.188;5.712;2022-10-16T09:22:48;99609.50;;;21.46
54306;BMP280;64314;45.188;5.712;2022-10-16T09:25:18;99632.25;;;21.55
54306;BMP280;64314;45.188;5.712;2022-10-16T09:27:47;99623.47;;;21.48
54306;BMP280;64314;45.188;5.712;2022-10-16T09:30:16;99641.88;;;21.53
54306;BMP280;64314;45.188;5.712;2022-10-16T09:32:43;99628.72;;;21.54
54306;BMP280;64314;45.188;5.712;2022-10-16T09:35:35;99616.78;;;21.42
54306;BMP280;64314;45.188;5.712;2022-10-16T09:38:01;99625.66;;;21.50
54306;BMP280;64314;45.188;5.712;2022-10-16T09:40:36;99616.91;;;21.44
54306;BMP280;64314;45.188;5.712;2022-10-16T09:43:12;99625.56;;;21.48
54306;BMP280;64314;45.188;5.712;2022-10-16T09:45:40;99617.94;;;21.48
54306;BMP280;64314;45.188;5.712;2022-10-16T09:48:19;99612.72;;;21.43
54306;BMP280;64314;45.188;5.712;2022-10-16T09:51:02;99632.09;;;21.52
54306;BMP280;64314;45.188;5.712;2022-10-16T09:53:45;99606.44;;;21.33
54306;BMP280;64314;45.188;5.712;2022-10-16T09:56:20;99621.16;;;21.45
54306;BMP280;64314;45.188;5.712;2022-10-16T09:58:54;99634.13;;;21.52
54306;BMP280;64314;45.188;5.712;2022-10-16T10:01:20;99616.50;;;21.47
54306;BMP280;64314;45.188;5.712;2022-10-16T10:03:56;99616.50;;;21.47
54306;BMP280;64314;45.188;5.712;2022-10-16T10:06:36;99601.91;;;21.37
54306;BMP280;64314;45.188;5.712;2022-10-16T10:09:23;99624.38;;;21.51
54306;BMP280;64314;45.188;5.712;2022-10-16T10:12:03;99603.94;;;21.46
54306;BMP280;64314;45.188;5.712;2022-10-16T10:14:43;99602.47;;;21.45
54306;BMP280;64314;45.188;5.712;2022-10-16T10:17:54;99608.91;;;21.48
54306;BMP280;64314;45.188;5.712;2022-10-16T10:20:38;99609.75;;;21.50
54306;BMP280;64314;45.188;5.712;2022-10-16T10:23:34;99583.06;;;21.36
54306;BMP280;64314;45.188;5.712;2022-10-16T10:26:18;99597.22;;;21.49
54306;BMP280;64314;45.188;5.712;2022-10-16T10:28:54;99589.59;;;21.50
54306;BMP280;64314;45.188;5.712;2022-10-16T10:31:27;99603.47;;;21.50
54306;BMP280;64314;45.188;5.712;2022-10-16T10:36:41;99595.03;;;21.48
54306;BMP280;64314;45.188;5.712;2022-10-16T10:42:07;99585.38;;;21.49
54306;BMP280;64314;45.188;5.712;2022-10-16T10:58:49;99560.41;;;21.49
54306;BMP280;64314;45.188;5.712;2022-10-16T11:01:22;99552.97;;;21.42
54306;BMP280;64314;45.188;5.712;2022-10-16T11:06:36;99550.31;;;21.44
54306;BMP280;64314;45.188;5.712;2022-10-16T11:09:21;99547.97;;;21.50
54306;BMP280;64314;45.188;5.712;2022-10-16T11:12:04;99533.41;;;21.40
54306;BMP280;64314;45.188;5.712;2022-10-16T11:19:58;99507.75;;;21.39
54306;BMP280;64314;45.188;5.712;2022-10-16T11:22:54;99529.28;;;21.50
54306;BMP280;64314;45.188;5.712;2022-10-16T11:25:27;99507.13;;;21.41
54306;BMP280;64314;45.188;5.712;2022-10-16T11:30:35;99516.44;;;21.45
54306;BMP280;64314;45.188;5.712;2022-10-16T11:33:27;99520.22;;;21.50
54306;BMP280;64314;45.188;5.712;2022-10-16T11:36:16;99520.50;;;21.54
54306;BMP280;64314;45.188;5.712;2022-10-16T11:47:06;99496.28;;;21.45
54306;BMP280;64314;45.188;5.712;2022-10-16T11:49:36;99503.72;;;21.52
54306;BMP280;64314;45.188;5.712;2022-10-16T11:52:33;99508.38;;;21.59
54306;BMP280;64314;45.188;5.712;2022-10-16T11:55:25;99501.94;;;21.57
54306;BMP280;64314;45.188;5.712;2022-10-16T12:04:12;99503.13;;;21.53
54306;BMP280;64314;45.188;5.712;2022-10-16T12:06:48;99500.50;;;21.56
54306;BMP280;64314;45.188;5.712;2022-10-16T12:11:46;99499.31;;;21.59
54306;BMP280;64314;45.188;5.712;2022-10-16T12:16:50;99503.56;;;21.60
54306;BMP280;64314;45.188;5.712;2022-10-16T12:19:17;99483.03;;;21.43
54306;BMP280;64314;45.188;5.712;2022-10-16T12:21:43;99494.22;;;21.55
54306;BMP280;64314;45.188;5.712;2022-10-16T12:24:38;99498.69;;;21.60
54306;BMP280;64314;45.188;5.712;2022-10-16T12:27:30;99500.78;;;21.60
54306;BMP280;64314;45.188;5.712;2022-10-16T12:29:58;99479.66;;;21.45
54306;BMP280;64314;45.188;5.712;2022-10-16T12:32:38;99495.25;;;21.60
54306;BMP280;64314;45.188;5.712;2022-10-16T12:35:16;99483.84;;;21.56
54306;BMP280;64314;45.188;5.712;2022-10-16T12:37:42;99480.81;;;21.52
54306;BMP280;64314;45.188;5.712;2022-10-16T12:40:15;99472.63;;;21.44
54306;BMP280;64314;45.188;5.712;2022-10-16T12:42:48;99469.72;;;21.52
54306;BMP280;64314;45.188;5.712;2022-10-16T12:45:31;99465.91;;;21.47
54306;BMP280;64314;45.188;5.712;2022-10-16T12:47:59;99471.16;;;21.52
54306;BMP280;64314;45.188;5.712;2022-10-16T12:50:37;99482.66;;;21.59
54306;BMP280;64314;45.188;5.712;2022-10-16T12:53:20;99476.97;;;21.57
54306;BMP280;64314;45.188;5.712;2022-10-16T12:58:37;99483.84;;;21.56
54306;BMP280;64314;45.188;5.712;2022-10-16T13:04:40;99492.47;;;21.60
54306;BMP280;64314;45.188;5.712;2022-10-16T13:07:36;99487.59;;;21.60
54306;BMP280;64314;45.188;5.712;2022-10-16T13:10:14;99479.75;;;21.57
54306;BMP280;64314;45.188;5.712;2022-10-16T13:13:06;99475.81;;;21.60
54306;BMP280;64314;45.188;5.712;2022-10-16T13:18:50;99485.56;;;21.61
54306;BMP280;64314;45.188;5.712;2022-10-16T13:21:39;99480.63;;;21.59
54306;BMP280;64314;45.188;5.712;2022-10-16T13:30:29;99461.53;;;21.44
54306;BMP280;64314;45.188;5.712;2022-10-16T13:33:00;99464.47;;;21.46
54306;BMP280;64314;45.188;5.712;2022-10-16T13:35:29;99474.91;;;21.57
54306;BMP280;64314;45.188;5.712;2022-10-16T13:38:16;99469.25;;;21.55
54306;BMP280;64314;45.188;5.712;2022-10-16T13:41:04;99478.13;;;21.63
54306;BMP280;64314;45.188;5.712;2022-10-16T13:43:40;99470.94;;;21.60
54306;BMP280;64314;45.188;5.712;2022-10-16T13:46:13;99476.38;;;21.58
54306;BMP280;64314;45.188;5.712;2022-10-16T13:48:43;99462.69;;;21.50
54306;BMP280;64314;45.188;5.712;2022-10-16T13:51:16;99452.63;;;21.45
54306;BMP280;64314;45.188;5.712;2022-10-16T13:53:43;99462.81;;;21.52
54306;BMP280;64314;45.188;5.712;2022-10-16T13:56:15;99473.47;;;21.56
54306;BMP280;64314;45.188;5.712;2022-10-16T13:58:41;99476.78;;;21.64
54306;BMP280;64314;45.188;5.712;2022-10-16T14:01:18;99458.16;;;21.55
54306;BMP280;64314;45.188;5.712;2022-10-16T14:03:46;99451.34;;;21.46
54306;BMP280;64314;45.188;5.712;2022-10-16T14:06:18;99456.41;;;21.50
54306;BMP280;64314;45.188;5.712;2022-10-16T14:08:55;99466.47;;;21.55
54306;BMP280;64314;45.188;5.712;2022-10-16T14:11:23;99450.75;;;21.48
54306;BMP280;64314;45.188;5.712;2022-10-16T14:13:50;99475.34;;;21.63
54306;BMP280;64314;45.188;5.712;2022-10-16T14:16:22;99464.16;;;21.52
54306;BMP280;64314;45.188;5.712;2022-10-16T14:19:06;99470.09;;;21.58
54306;BMP280;64314;45.188;5.712;2022-10-16T14:21:40;99472.59;;;21.63
54306;BMP280;64314;45.188;5.712;2022-10-16T14:24:13;99460.50;;;21.49
54306;BMP280;64314;45.188;5.712;2022-10-16T14:26:43;99465.00;;;21.54
54306;BMP280;64314;45.188;5.712;2022-10-16T14:29:18;99490.06;;;21.66
54306;BMP280;64314;45.188;5.712;2022-10-16T14:31:55;99489.47;;;21.67
54306;BMP280;64314;45.188;5.712;2022-10-16T14:34:30;99467.50;;;21.50
54306;BMP280;64314;45.188;5.712;2022-10-16T14:37:00;99481.94;;;21.58
54306;BMP280;64314;45.188;5.712;2022-10-16T14:39:27;99483.69;;;21.63
54306;BMP280;64314;45.188;5.712;2022-10-16T14:41:56;99484.06;;;21.69
54306;BMP280;64314;45.188;5.712;2022-10-16T14:44:29;99482.31;;;21.64
54306;BMP280;64314;45.188;5.712;2022-10-16T14:46:55;99475.53;;;21.56
54306;BMP280;64314;45.188;5.712;2022-10-16T14:49:22;99466.19;;;21.51
54306;BMP280;64314;45.188;5.712;2022-10-16T14:51:48;99496.75;;;21.72
54306;BMP280;64314;45.188;5.712;2022-10-16T14:54:17;99471.75;;;21.51
54306;BMP280;64314;45.188;5.712;2022-10-16T14:56:54;99487.16;;;21.64
54306;BMP280;64314;45.188;5.712;2022-10-16T14:59:36;99482.66;;;21.59
54306;BMP280;64314;45.188;5.712;2022-10-16T15:04:46;99496.94;;;21.65
54306;BMP280;64314;45.188;5.712;2022-10-16T15:07:12;99501.91;;;21.66
54306;BMP280;64314;45.188;5.712;2022-10-16T15:09:38;99511.97;;;21.71
54306;BMP280;64314;45.188;5.712;2022-10-16T15:12:03;99495.91;;;21.60
54306;BMP280;64314;45.188;5.712;2022-10-16T15:14:31;99513.41;;;21.72
54306;BMP280;64314;45.188;5.712;2022-10-16T15:16:59;99496.47;;;21.68
54306;BMP280;64314;45.188;5.712;2022-10-16T15:19:28;99490.38;;;21.60
54306;BMP280;64314;45.188;5.712;2022-10-16T15:21:53;99489.69;;;21.60
54306;BMP280;64314;45.188;5.712;2022-10-16T15:24:18;99491.84;;;21.61
54306;BMP280;64314;45.188;5.712;2022-10-16T15:26:44;99503.50;;;21.69
54306;BMP280;64314;45.188;5.712;2022-10-16T15:29:11;99507.00;;;21.70
54306;BMP280;64314;45.188;5.712;2022-10-16T15:31:39;99492.19;;;21.56
54306;BMP280;64314;45.188;5.712;2022-10-16T15:34:08;99501.75;;;21.64
54306;BMP280;64314;45.188;5.712;2022-10-16T15:36:37;99495.91;;;21.60
54306;BMP280;64314;45.188;5.712;2022-10-16T15:39:13;99499.59;;;21.63
54306;BMP280;64314;45.188;5.712;2022-10-16T15:41:41;99516.19;;;21.72
54306;BMP280;64314;45.188;5.712;2022-10-16T15:44:07;99507.31;;;21.64
54306;BMP280;64314;45.188;5.712;2022-10-16T15:46:32;99520.44;;;21.73
54306;BMP280;64314;45.188;5.712;2022-10-16T15:48:59;99527.44;;;21.74
54306;BMP280;64314;45.188;5.712;2022-10-16T15:51:27;99510.97;;;21.67
54306;BMP280;64314;45.188;5.712;2022-10-16T15:53:55;99520.16;;;21.69
54306;BMP280;64314;45.188;5.712;2022-10-16T15:56:21;99523.22;;;21.73
54306;BMP280;64314;45.188;5.712;2022-10-16T15:58:47;99518.69;;;21.68
54306;BMP280;64314;45.188;5.712;2022-10-16T16:01:13;99519.41;;;21.69
54306;BMP280;64314;45.188;5.712;2022-10-16T16:03:38;99541.16;;;21.72
54306;BMP280;64314;45.188;5.712;2022-10-16T16:06:09;99519.88;;;21.65
54306;BMP280;64314;45.188;5.712;2022-10-16T16:08:35;99534.16;;;21.71